Time;durP1;ratioP1;P1;durP2;ratioP2;P2;SDS_P1;SDS_P2;PMS_P1;PMS_P2;Temp;Humidity;BMP_temperature;BMP_pressure;BME280_temperature;BME280_humidity;BME280_pressure;Samples;Min_cycle;Max_cycle;Signal;HPM_P1;HPM_P2
2022/05/23 00:00:45;;;;;;;7.50;4.60;;;19.90;37.70;;;;;;5056192;28;20269;-71
2022/05/23 00:03:11;;;;;;;14.60;5.50;;;19.80;37.50;;;;;;5052337;28;20440;-71
2022/05/23 00:05:36;;;;;;;8.33;5.20;;;19.70;37.50;;;;;;5052017;28;20445;-71
2022/05/23 00:08:02;;;;;;;11.00;5.00;;;19.70;38.50;;;;;;5055642;28;20244;-71
2022/05/23 00:10:28;;;;;;;8.47;5.33;;;19.70;38.10;;;;;;5051433;28;20177;-71
2022/05/23 00:12:54;;;;;;;6.80;5.20;;;19.70;38.30;;;;;;5051854;28;20812;-71
2022/05/23 00:15:20;;;;;;;12.73;6.10;;;19.90;37.40;;;;;;5052599;28;20646;-71
2022/05/23 00:17:46;;;;;;;9.30;5.20;;;19.80;37.40;;;;;;5054059;28;20793;-71
2022/05/23 00:20:14;;;;;;;7.70;5.10;;;20.00;36.40;;;;;;5053361;28;20434;-71
2022/05/23 00:22:40;;;;;;;9.40;5.73;;;19.80;37.90;;;;;;5051720;28;20233;-71
2022/05/23 00:25:08;;;;;;;8.27;5.10;;;19.60;37.50;;;;;;5052033;28;20428;-71
2022/05/23 00:27:37;;;;;;;11.30;5.50;;;19.60;39.00;;;;;;5056784;28;20461;-72
2022/05/23 00:30:05;;;;;;;8.23;5.17;;;19.60;38.50;;;;;;5057143;28;20515;-71
2022/05/23 00:35:18;;;;;;;8.73;5.57;;;19.70;38.20;;;;;;5052799;28;20436;-71
2022/05/23 00:37:44;;;;;;;7.13;5.30;;;19.50;38.90;;;;;;5052725;28;20435;-71
2022/05/23 00:40:48;;;;;;;7.20;5.20;;;19.60;39.30;;;;;;5051094;28;20799;-71
2022/05/23 00:43:25;;;;;;;8.23;4.97;;;19.50;40.20;;;;;;5049280;28;20506;-71
2022/05/23 00:45:54;;;;;;;8.97;4.87;;;19.50;38.80;;;;;;5052067;28;20561;-71
2022/05/23 00:48:26;;;;;;;7.43;4.83;;;19.80;37.30;;;;;;5056502;28;20456;-72
2022/05/23 00:51:01;;;;;;;7.73;5.40;;;19.50;39.10;;;;;;5053764;28;20447;-71
2022/05/23 00:53:39;;;;;;;6.20;4.97;;;19.30;38.80;;;;;;5051770;28;20453;-71
2022/05/23 00:56:10;;;;;;;7.70;4.97;;;19.20;39.30;;;;;;5051069;28;20477;-71
2022/05/23 00:58:42;;;;;;;18.20;5.80;;;19.20;39.10;;;;;;5056246;28;20429;-71
2022/05/23 01:01:11;;;;;;;9.47;5.03;;;19.30;38.30;;;;;;5051148;28;20938;-71
2022/05/23 01:03:38;;;;;;;9.03;5.03;;;19.40;36.90;;;;;;5054207;28;20450;-71
2022/05/23 01:06:05;;;;;;;6.50;5.20;;;19.30;37.60;;;;;;5051121;28;20532;-71
2022/05/23 01:08:34;;;;;;;10.87;5.70;;;19.00;39.40;;;;;;5052087;28;20467;-71
2022/05/23 01:11:00;;;;;;;14.80;5.80;;;18.30;41.10;;;;;;5051676;28;20528;-71
2022/05/23 01:13:26;;;;;;;7.30;5.00;;;18.20;40.90;;;;;;5054712;28;20443;-71
2022/05/23 01:15:51;;;;;;;8.53;5.33;;;18.40;41.90;;;;;;5054851;28;20423;-71
2022/05/23 01:18:18;;;;;;;8.90;4.50;;;18.70;41.40;;;;;;5051018;28;20191;-71
2022/05/23 01:20:45;;;;;;;14.17;5.10;;;18.80;40.50;;;;;;5050991;28;20179;-71
2022/05/23 01:23:34;;;;;;;11.50;5.70;;;18.20;41.20;;;;;;5050750;28;20516;-71
2022/05/23 01:26:00;;;;;;;10.33;5.27;;;17.70;43.60;;;;;;5052347;28;20899;-71
2022/05/23 01:28:25;;;;;;;11.00;5.37;;;18.10;42.90;;;;;;5050622;28;20559;-71
2022/05/23 01:30:51;;;;;;;7.43;5.40;;;18.30;40.10;;;;;;5051954;28;20183;-71
2022/05/23 01:33:17;;;;;;;9.70;4.97;;;18.40;40.80;;;;;;5053448;28;20234;-72
2022/05/23 01:35:43;;;;;;;7.40;5.60;;;18.50;40.20;;;;;;5066051;28;20191;-71
2022/05/23 01:38:09;;;;;;;11.43;5.43;;;18.60;40.30;;;;;;5051484;28;20442;-71
2022/05/23 01:40:35;;;;;;;7.70;5.40;;;18.80;39.80;;;;;;5050304;28;21227;-71
2022/05/23 01:43:01;;;;;;;9.90;5.80;;;18.70;39.00;;;;;;5050004;28;20446;-71
2022/05/23 01:45:30;;;;;;;8.87;6.27;;;18.70;40.00;;;;;;5051495;28;20439;-71
2022/05/23 01:47:56;;;;;;;12.70;6.13;;;18.40;40.20;;;;;;5052891;28;20468;-71
2022/05/23 01:50:23;;;;;;;11.33;6.60;;;18.40;39.50;;;;;;5050844;28;20456;-71
2022/05/23 01:52:50;;;;;;;12.50;6.47;;;17.90;41.50;;;;;;5050388;28;20437;-71
2022/05/23 01:55:16;;;;;;;11.50;6.20;;;17.30;43.60;;;;;;5051211;28;20653;-71
2022/05/23 01:57:42;;;;;;;11.87;8.03;;;16.50;48.50;;;;;;5052708;28;20444;-71
2022/05/23 02:02:54;;;;;;;13.30;8.40;;;16.60;49.20;;;;;;5050162;28;20581;-71
2022/05/23 02:05:22;;;;;;;17.03;7.60;;;17.40;46.00;;;;;;5050705;28;20426;-71
2022/05/23 02:07:48;;;;;;;11.37;6.70;;;17.70;44.70;;;;;;5054390;28;20208;-71
2022/05/23 02:10:14;;;;;;;10.07;7.17;;;17.70;43.80;;;;;;5053691;28;20461;-71
2022/05/23 02:12:40;;;;;;;14.20;6.97;;;17.10;45.40;;;;;;5054116;28;20211;-71
2022/05/23 02:15:07;;;;;;;8.57;6.30;;;16.90;46.90;;;;;;5054085;28;20427;-71
2022/05/23 02:17:32;;;;;;;9.80;6.10;;;17.00;46.40;;;;;;5054974;28;20438;-71
2022/05/23 02:19:58;;;;;;;14.53;5.47;;;17.00;46.00;;;;;;5055184;28;20791;-71
2022/05/23 02:22:24;;;;;;;8.43;5.57;;;17.60;45.10;;;;;;5055452;28;20192;-71
2022/05/23 02:24:49;;;;;;;9.50;6.33;;;18.00;43.60;;;;;;5057554;28;20272;-71
2022/05/23 02:27:15;;;;;;;9.07;5.63;;;18.30;42.10;;;;;;5052685;28;20251;-71
2022/05/23 02:29:41;;;;;;;9.10;6.20;;;18.30;41.20;;;;;;5053913;28;20191;-71
2022/05/23 02:32:07;;;;;;;8.03;5.93;;;18.20;41.10;;;;;;5058918;28;20652;-71
2022/05/23 02:34:33;;;;;;;9.37;6.10;;;18.30;41.40;;;;;;5053936;28;20184;-71
2022/05/23 02:36:59;;;;;;;9.53;6.27;;;18.20;40.80;;;;;;5058175;28;20466;-71
2022/05/23 02:39:25;;;;;;;8.90;5.80;;;18.20;41.80;;;;;;5053917;28;20525;-71
2022/05/23 02:41:50;;;;;;;13.30;8.03;;;18.20;41.80;;;;;;5055071;28;20529;-71
2022/05/23 02:44:17;;;;;;;11.30;6.73;;;18.00;41.70;;;;;;5053386;28;20231;-71
2022/05/23 02:46:43;;;;;;;16.10;7.07;;;18.10;42.10;;;;;;5053595;28;20230;-71
2022/05/23 02:49:09;;;;;;;12.30;6.70;;;18.10;41.60;;;;;;5057919;28;20442;-71
2022/05/23 02:51:34;;;;;;;11.80;7.47;;;18.30;41.60;;;;;;5053200;28;20431;-71
2022/05/23 02:54:01;;;;;;;10.40;6.47;;;18.30;42.00;;;;;;5058569;28;20888;-71
2022/05/23 02:56:26;;;;;;;10.07;6.37;;;18.10;41.30;;;;;;5053507;28;20183;-71
2022/05/23 02:58:52;;;;;;;9.30;5.87;;;17.70;43.40;;;;;;5045732;28;20482;-71
2022/05/23 03:01:17;;;;;;;8.80;6.10;;;17.60;43.20;;;;;;5054892;28;20183;-71
2022/05/23 03:03:43;;;;;;;23.53;6.33;;;17.80;43.10;;;;;;5056998;28;20694;-71
2022/05/23 03:06:09;;;;;;;10.30;5.50;;;17.80;43.60;;;;;;5053246;28;20182;-71
2022/05/23 03:08:36;;;;;;;11.13;6.20;;;17.90;42.50;;;;;;5053085;28;20215;-71
2022/05/23 03:11:04;;;;;;;14.60;6.60;;;18.20;40.00;;;;;;5054180;28;20276;-71
2022/05/23 03:13:30;;;;;;;7.40;5.50;;;18.30;40.20;;;;;;5060884;28;20444;-71
2022/05/23 03:15:55;;;;;;;6.87;4.77;;;18.10;39.90;;;;;;5055310;28;20430;-71
2022/05/23 03:18:24;;;;;;;8.27;4.60;;;18.20;36.30;;;;;;5052346;28;20193;-71
2022/05/23 03:20:59;;;;;;;7.27;5.03;;;18.60;33.70;;;;;;5056596;28;20210;-71
2022/05/23 03:29:13;;;;;;;7.60;4.47;;;19.60;30.80;;;;;;5090291;28;20427;-71
2022/05/23 03:31:38;;;;;;;8.40;4.50;;;19.80;30.90;;;;;;5091687;28;20889;-71
2022/05/23 03:34:04;;;;;;;11.90;4.57;;;19.90;30.60;;;;;;5090158;28;20723;-71
2022/05/23 03:36:30;;;;;;;8.90;5.37;;;19.90;31.70;;;;;;5091871;28;20174;-71
2022/05/23 03:38:55;;;;;;;6.87;4.97;;;19.80;32.30;;;;;;5090363;28;20210;-71
2022/05/23 03:41:21;;;;;;;7.03;5.37;;;18.60;36.30;;;;;;5090109;28;20206;-71
2022/05/23 03:43:46;;;;;;;10.50;5.60;;;18.30;38.00;;;;;;5091115;28;20712;-70
2022/05/23 03:46:13;;;;;;;8.33;5.43;;;18.20;38.50;;;;;;5091469;28;20575;-71
2022/05/23 03:48:40;;;;;;;7.20;5.30;;;18.20;38.10;;;;;;5090132;28;20241;-71
2022/05/23 03:51:07;;;;;;;8.00;5.30;;;17.90;39.70;;;;;;5090080;28;20990;-70
2022/05/23 03:53:33;;;;;;;8.70;5.83;;;17.70;41.20;;;;;;5093932;28;20454;-71
2022/05/23 03:55:59;;;;;;;11.50;6.00;;;17.00;44.70;;;;;;5090204;28;20426;-71
2022/05/23 03:58:26;;;;;;;8.23;6.00;;;16.70;45.90;;;;;;5052855;28;20427;-70
2022/05/23 04:00:52;;;;;;;13.70;5.80;;;16.40;48.30;;;;;;5052023;28;20198;-71
2022/05/23 04:03:19;;;;;;;11.73;5.80;;;16.60;48.50;;;;;;5053009;28;20945;-71
2022/05/23 04:05:45;;;;;;;12.20;5.70;;;17.20;45.00;;;;;;5051889;28;20188;-71
2022/05/23 04:08:12;;;;;;;10.60;5.63;;;17.90;42.10;;;;;;5056880;28;21008;-70
2022/05/23 04:10:40;;;;;;;8.30;5.77;;;18.60;39.50;;;;;;5052219;28;20447;-71
2022/05/23 04:13:06;;;;;;;8.67;5.83;;;18.90;40.00;;;;;;5050892;28;20509;-70
2022/05/23 04:15:32;;;;;;;7.53;5.87;;;19.50;40.20;;;;;;5057798;28;20422;-71
2022/05/23 04:17:58;;;;;;;9.30;6.00;;;18.20;41.00;;;;;;5051784;28;20418;-71
2022/05/23 04:20:24;;;;;;;15.13;5.40;;;17.80;41.90;;;;;;5051129;28;20431;-71
2022/05/23 04:22:50;;;;;;;12.63;5.63;;;17.80;42.60;;;;;;5055131;28;20485;-71
2022/05/23 04:25:16;;;;;;;8.20;5.73;;;18.40;40.50;;;;;;5053501;28;20944;-71
2022/05/23 04:27:41;;;;;;;10.13;5.80;;;18.60;40.10;;;;;;5058206;28;20317;-70
2022/05/23 04:30:09;;;;;;;12.07;6.23;;;18.70;40.80;;;;;;5056481;28;20566;-71
2022/05/23 04:35:20;;;;;;;8.40;6.00;;;16.40;52.10;;;;;;5053527;28;20429;-71
2022/05/23 04:37:51;;;;;;;13.07;6.50;;;15.80;55.40;;;;;;5055850;28;20521;-70
2022/05/23 04:40:23;;;;;;;9.03;6.33;;;15.80;56.70;;;;;;5050644;28;20458;-71
2022/05/23 04:42:49;;;;;;;18.83;6.23;;;16.10;54.20;;;;;;5059149;28;20542;-71
2022/05/23 04:45:15;;;;;;;10.00;5.90;;;16.50;51.90;;;;;;5052934;28;20527;-71
2022/05/23 04:50:26;;;;;;;9.83;6.13;;;18.20;47.20;;;;;;5052545;28;20429;-71
2022/05/23 04:52:53;;;;;;;11.40;5.87;;;18.50;44.90;;;;;;5052547;28;20861;-71
2022/05/23 04:55:19;;;;;;;12.53;6.37;;;18.80;44.20;;;;;;5053317;28;20902;-71
2022/05/23 04:57:46;;;;;;;19.07;5.43;;;18.90;45.10;;;;;;5058579;28;20434;-71
2022/05/23 05:00:14;;;;;;;15.10;6.20;;;19.00;44.70;;;;;;5057475;28;20445;-70
2022/05/23 05:02:40;;;;;;;9.57;5.80;;;19.00;44.70;;;;;;5050702;28;20453;-71
2022/05/23 05:05:08;;;;;;;11.33;6.10;;;19.10;45.10;;;;;;5050859;28;20424;-73
2022/05/23 05:07:33;;;;;;;7.60;5.90;;;19.10;45.00;;;;;;5054435;28;20455;-72
2022/05/23 05:09:59;;;;;;;7.47;6.00;;;19.20;44.70;;;;;;5053857;28;20802;-75
2022/05/23 05:12:25;;;;;;;9.17;6.17;;;19.30;44.80;;;;;;5050522;28;20925;-70
2022/05/23 05:14:51;;;;;;;7.70;5.80;;;19.40;44.00;;;;;;5058377;28;20181;-71
2022/05/23 05:17:16;;;;;;;10.40;6.30;;;19.40;45.00;;;;;;5051026;28;20861;-71
2022/05/23 05:19:42;;;;;;;10.83;6.73;;;19.40;45.30;;;;;;5052462;28;20825;-71
2022/05/23 05:22:08;;;;;;;10.53;6.77;;;19.40;46.00;;;;;;5062220;28;20196;-71
2022/05/23 05:24:34;;;;;;;8.60;5.80;;;19.40;44.80;;;;;;5047554;28;20419;-71
2022/05/23 05:27:01;;;;;;;10.90;6.47;;;19.60;43.20;;;;;;5033111;28;20272;-71
2022/05/23 05:29:27;;;;;;;16.73;6.13;;;19.70;43.40;;;;;;5034678;28;20186;-76
2022/05/23 05:32:06;;;;;;;10.40;6.60;;;19.90;41.80;;;;;;5045556;28;20429;-72
2022/05/23 05:34:41;;;;;;;12.97;6.83;;;19.90;40.30;;;;;;5046945;28;20416;-70
2022/05/23 05:37:13;;;;;;;10.90;6.40;;;20.00;42.80;;;;;;5051537;28;20792;-70
2022/05/23 05:39:42;;;;;;;11.13;5.83;;;19.90;45.40;;;;;;5055937;28;20507;-70
2022/05/23 05:42:27;;;;;;;9.63;6.13;;;19.90;43.40;;;;;;5053964;28;20480;-70
2022/05/23 05:45:02;;;;;;;8.10;6.00;;;20.00;43.80;;;;;;5057341;28;20749;-72
2022/05/23 05:47:30;;;;;;;10.13;5.90;;;20.00;46.00;;;;;;5054543;28;20839;-70
2022/05/23 05:50:01;;;;;;;9.70;6.37;;;20.00;46.40;;;;;;5050509;28;20816;-71
2022/05/23 05:52:30;;;;;;;9.77;6.33;;;20.10;45.40;;;;;;5050882;28;20459;-71
2022/05/23 05:54:57;;;;;;;15.57;6.30;;;20.30;44.20;;;;;;5058909;28;20448;-71
2022/05/23 05:57:24;;;;;;;21.63;5.73;;;20.30;44.40;;;;;;5057021;28;20435;-72
2022/05/23 05:59:50;;;;;;;15.00;7.60;;;20.10;44.70;;;;;;5051585;28;20445;-72
2022/05/23 06:02:16;;;;;;;15.20;7.70;;;20.00;45.10;;;;;;5056650;28;20436;-73
2022/05/23 06:04:42;;;;;;;20.90;7.37;;;20.30;45.40;;;;;;5057632;28;20215;-70
2022/05/23 06:12:37;;;;;;;9.10;5.70;;;20.60;43.90;;;;;;5052610;28;20468;-70
2022/05/23 06:15:03;;;;;;;15.63;5.70;;;21.00;43.60;;;;;;5054945;28;20989;-71
2022/05/23 06:17:28;;;;;;;19.30;5.57;;;21.10;42.70;;;;;;5050892;28;20178;-72
2022/05/23 06:19:54;;;;;;;8.67;5.50;;;21.20;42.80;;;;;;5049704;28;20460;-72
2022/05/23 06:22:21;;;;;;;12.70;5.77;;;21.30;42.20;;;;;;5048675;28;20670;-72
2022/05/23 06:24:49;;;;;;;11.57;5.50;;;21.70;39.50;;;;;;5041830;28;20186;-71
2022/05/23 06:27:15;;;;;;;11.13;5.37;;;21.70;39.50;;;;;;5048404;28;20462;-73
2022/05/23 06:29:40;;;;;;;15.93;5.30;;;21.60;39.70;;;;;;5056579;28;20475;-73
2022/05/23 06:32:07;;;;;;;9.77;5.47;;;21.40;41.50;;;;;;5052049;28;20971;-74
2022/05/23 06:34:33;;;;;;;7.23;5.03;;;21.40;40.80;;;;;;5058237;28;20547;-72
2022/05/23 06:36:59;;;;;;;6.87;4.70;;;21.60;40.40;;;;;;5056148;28;20494;-73
2022/05/23 06:39:25;;;;;;;9.70;5.00;;;21.90;39.60;;;;;;5053440;28;20429;-72
2022/05/23 06:41:51;;;;;;;6.30;4.53;;;21.90;39.90;;;;;;5055287;28;20467;-73
2022/05/23 06:44:17;;;;;;;7.80;4.60;;;21.90;38.80;;;;;;5057007;28;20473;-71
2022/05/23 06:46:43;;;;;;;9.27;4.90;;;21.50;40.30;;;;;;5053362;28;20362;-72
2022/05/23 06:49:09;;;;;;;8.70;4.90;;;21.50;40.60;;;;;;5056970;28;20291;-73
2022/05/23 06:51:34;;;;;;;10.67;5.20;;;21.50;41.50;;;;;;5049555;28;20180;-73
2022/05/23 06:54:00;;;;;;;10.43;4.77;;;21.80;38.60;;;;;;5053073;28;20462;-73
2022/05/23 06:56:28;;;;;;;7.70;4.63;;;22.10;39.20;;;;;;5056500;28;20189;-74
2022/05/23 06:58:54;;;;;;;12.57;4.63;;;22.00;38.90;;;;;;5050446;28;20494;-73
2022/05/23 07:01:20;;;;;;;8.50;4.60;;;22.30;38.00;;;;;;5053542;28;20436;-73
2022/05/23 07:03:46;;;;;;;10.10;5.10;;;22.60;38.10;;;;;;5055010;28;21031;-74
2022/05/23 07:14:26;;;;;;;8.87;4.10;;;22.70;36.40;;;;;;5052902;28;20475;-74
2022/05/23 07:16:54;;;;;;;13.13;5.30;;;22.60;36.60;;;;;;5053225;28;20930;-72
2022/05/23 07:19:20;;;;;;;10.53;4.60;;;22.10;37.30;;;;;;5052878;28;20506;-74
2022/05/23 07:21:45;;;;;;;7.03;4.77;;;22.30;36.90;;;;;;5053103;28;20519;-72
2022/05/23 07:24:11;;;;;;;9.00;5.07;;;22.20;38.30;;;;;;5051502;28;20538;-74
2022/05/23 07:26:37;;;;;;;6.23;4.70;;;22.30;36.50;;;;;;5053279;28;20186;-74
2022/05/23 07:29:03;;;;;;;10.07;5.00;;;22.60;35.70;;;;;;5053584;28;20460;-74
2022/05/23 07:31:29;;;;;;;7.70;5.03;;;22.80;36.20;;;;;;5054039;28;20241;-74
2022/05/23 07:33:55;;;;;;;8.10;5.13;;;22.80;37.20;;;;;;5052384;28;20445;-73
2022/05/23 07:36:21;;;;;;;8.37;5.13;;;23.10;34.80;;;;;;5052805;28;20556;-72
2022/05/23 07:38:47;;;;;;;10.43;4.63;;;22.90;35.30;;;;;;5053054;28;20247;-73
2022/05/23 07:41:13;;;;;;;7.07;4.60;;;22.90;35.60;;;;;;5052726;28;20425;-72
2022/05/23 07:43:41;;;;;;;9.17;4.70;;;22.90;35.30;;;;;;5052150;28;20242;-73
2022/05/23 07:46:12;;;;;;;8.70;4.90;;;22.90;36.70;;;;;;5052859;28;20928;-74
2022/05/23 07:48:42;;;;;;;7.80;4.60;;;23.10;35.00;;;;;;5052435;28;20469;-74
2022/05/23 07:51:10;;;;;;;11.93;4.93;;;23.30;35.10;;;;;;5051757;28;20990;-74
2022/05/23 08:01:51;;;;;;;10.43;5.10;;;23.90;31.50;;;;;;5054262;28;20936;-74
2022/05/23 08:04:16;;;;;;;6.60;4.47;;;24.40;33.20;;;;;;5052030;28;20466;-75
2022/05/23 08:06:43;;;;;;;15.10;5.40;;;24.60;31.60;;;;;;5052089;28;20426;-74
2022/05/23 08:09:09;;;;;;;7.40;4.33;;;24.40;31.70;;;;;;5052028;28;20522;-74
2022/05/23 08:11:39;;;;;;;13.33;4.90;;;24.30;31.50;;;;;;5058152;28;20426;-74
2022/05/23 08:14:05;;;;;;;9.43;4.40;;;24.40;31.30;;;;;;5051837;28;20199;-74
2022/05/23 08:16:31;;;;;;;12.57;5.43;;;24.70;30.30;;;;;;5052030;28;20446;-74
2022/05/23 08:18:58;;;;;;;10.30;4.73;;;24.60;30.60;;;;;;5051592;28;20454;-74
2022/05/23 08:21:24;;;;;;;11.60;4.80;;;24.90;31.30;;;;;;5051474;28;20418;-73
2022/05/23 08:23:50;;;;;;;12.50;5.13;;;25.10;30.30;;;;;;5051497;28;20460;-71
2022/05/23 08:26:16;;;;;;;16.53;5.03;;;25.10;31.70;;;;;;5051489;28;20422;-71
2022/05/23 08:28:42;;;;;;;12.83;5.27;;;24.70;31.60;;;;;;5051294;22;20526;-72
2022/05/23 08:31:08;;;;;;;7.77;5.30;;;24.30;32.30;;;;;;5028992;28;20464;-71
2022/05/23 08:33:34;;;;;;;10.23;5.23;;;24.30;32.50;;;;;;5040630;28;20180;-72
2022/05/23 08:36:00;;;;;;;10.93;5.30;;;24.10;32.30;;;;;;5023840;28;20472;-73
2022/05/23 08:38:25;;;;;;;10.33;5.50;;;23.90;33.40;;;;;;5017438;28;20263;-74
2022/05/23 08:41:03;;;;;;;8.83;5.77;;;23.90;33.60;;;;;;5010589;28;20185;-73
2022/05/23 08:43:51;;;;;;;9.57;5.40;;;24.10;32.50;;;;;;5005680;28;20227;-73
2022/05/23 08:46:44;;;;;;;13.40;5.60;;;24.10;33.90;;;;;;5007367;28;20807;-73
2022/05/23 08:49:30;;;;;;;10.93;5.80;;;24.20;33.50;;;;;;4994663;28;20468;-73
2022/05/23 08:52:13;;;;;;;11.60;5.67;;;24.00;33.20;;;;;;5001298;28;20778;-73
2022/05/23 08:55:01;;;;;;;6.93;5.07;;;23.80;33.60;;;;;;5004745;28;20420;-71
2022/05/23 08:57:50;;;;;;;7.73;5.13;;;23.80;34.70;;;;;;5000626;28;20437;-73
2022/05/23 09:00:23;;;;;;;9.43;5.50;;;24.10;34.90;;;;;;4993557;28;20944;-73
2022/05/23 09:03:01;;;;;;;10.13;5.50;;;24.50;32.80;;;;;;5010264;28;20487;-74
2022/05/23 09:05:32;;;;;;;11.90;5.40;;;25.10;32.30;;;;;;5000817;28;20974;-72
2022/05/23 09:08:08;;;;;;;11.33;5.50;;;25.40;32.30;;;;;;5008285;28;20463;-73
2022/05/23 09:11:03;;;;;;;8.47;5.03;;;25.30;31.70;;;;;;5005185;28;20983;-73
2022/05/23 09:13:33;;;;;;;9.37;5.20;;;25.30;30.20;;;;;;5003802;28;20426;-73
2022/05/23 09:16:04;;;;;;;9.70;5.40;;;25.50;32.20;;;;;;5004851;28;20421;-73
2022/05/23 09:18:43;;;;;;;9.83;5.40;;;25.10;32.20;;;;;;5003195;28;20494;-72
2022/05/23 09:21:09;;;;;;;8.90;5.10;;;25.10;31.70;;;;;;4995510;28;20460;-73
2022/05/23 09:23:41;;;;;;;8.30;5.50;;;25.00;33.40;;;;;;5003715;28;20842;-74
2022/05/23 09:26:16;;;;;;;12.67;5.10;;;25.30;32.90;;;;;;5012224;28;20420;-73
2022/05/23 09:28:42;;;;;;;19.10;5.43;;;25.70;31.50;;;;;;4999850;28;20479;-73
2022/05/23 09:31:26;;;;;;;14.30;5.87;;;25.30;31.90;;;;;;5007958;28;20428;-72
2022/05/23 09:33:54;;;;;;;10.60;5.23;;;25.40;32.60;;;;;;4999743;28;20195;-72
2022/05/23 09:36:25;;;;;;;11.43;5.60;;;25.30;31.50;;;;;;5008499;28;20760;-73
2022/05/23 09:38:50;;;;;;;9.70;5.80;;;25.60;31.20;;;;;;5006455;28;20548;-74
2022/05/23 09:47:46;;;;;;;9.50;5.60;;;25.80;31.30;;;;;;4981287;28;20975;-73
2022/05/23 09:50:28;;;;;;;9.80;5.00;;;26.10;30.10;;;;;;4984936;28;20409;-72
2022/05/23 09:53:01;;;;;;;10.33;5.27;;;26.10;30.10;;;;;;4978114;28;20477;-74
2022/05/23 09:55:33;;;;;;;16.13;5.80;;;26.20;32.20;;;;;;4985648;28;20421;-75
2022/05/23 09:58:06;;;;;;;9.10;5.40;;;26.50;29.10;;;;;;4987450;28;20484;-73
2022/05/23 10:00:37;;;;;;;9.53;5.63;;;26.60;30.30;;;;;;4978603;28;21067;-73
2022/05/23 10:03:10;;;;;;;11.10;5.33;;;26.20;30.10;;;;;;4988555;28;20503;-74
2022/05/23 10:05:41;;;;;;;9.90;5.53;;;26.20;31.10;;;;;;4974250;28;20421;-75
2022/05/23 10:08:13;;;;;;;13.73;6.00;;;26.20;30.80;;;;;;4986897;28;20503;-75
2022/05/23 10:10:52;;;;;;;9.80;5.60;;;26.30;30.20;;;;;;4987688;28;20444;-74
2022/05/23 10:13:38;;;;;;;11.73;6.60;;;26.20;29.90;;;;;;4997013;28;20472;-74
2022/05/23 10:16:11;;;;;;;10.17;5.83;;;25.90;31.10;;;;;;4988084;28;20933;-75
2022/05/23 10:18:48;;;;;;;17.80;7.07;;;26.00;30.20;;;;;;4982548;28;20449;-73
2022/05/23 10:21:36;;;;;;;14.67;6.00;;;26.10;32.80;;;;;;5000907;28;20428;-74
2022/05/23 10:24:04;;;;;;;10.00;6.10;;;26.00;32.70;;;;;;5005638;28;20425;-74
2022/05/23 10:26:33;;;;;;;8.83;6.10;;;25.90;34.20;;;;;;5008117;28;20431;-75
2022/05/23 10:29:39;;;;;;;11.60;6.57;;;24.60;34.90;;;;;;5016587;28;20558;-75
2022/05/23 10:32:07;;;;;;;11.60;6.50;;;25.60;39.10;;;;;;5010609;28;20420;-75
2022/05/23 10:34:46;;;;;;;15.10;6.70;;;25.60;35.70;;;;;;5013232;28;20419;-75
2022/05/23 10:37:22;;;;;;;10.00;6.10;;;25.60;36.30;;;;;;5002790;28;20428;-74
2022/05/23 10:42:45;;;;;;;12.20;6.57;;;24.90;37.80;;;;;;5012026;28;20434;-74
2022/05/23 10:45:20;;;;;;;10.17;6.30;;;24.20;42.70;;;;;;5008503;28;20522;-74
2022/05/23 10:48:05;;;;;;;9.60;6.30;;;24.70;40.40;;;;;;5011279;28;20458;-74
2022/05/23 10:51:00;;;;;;;10.83;6.20;;;24.80;40.90;;;;;;5010882;28;20442;-73
2022/05/23 10:53:46;;;;;;;14.47;6.20;;;24.40;44.00;;;;;;5010019;28;20509;-71
2022/05/23 10:56:36;;;;;;;13.20;6.37;;;24.70;43.10;;;;;;5010840;28;20511;-70
2022/05/23 10:59:16;;;;;;;13.80;7.10;;;24.00;47.10;;;;;;5006095;28;20958;-75
2022/05/23 11:01:48;;;;;;;13.03;7.27;;;24.10;43.80;;;;;;5009650;28;20825;-74
2022/05/23 11:04:22;;;;;;;14.50;7.30;;;24.10;45.50;;;;;;5009020;28;20431;-73
2022/05/23 11:06:57;;;;;;;11.93;7.00;;;23.60;47.40;;;;;;5009692;28;20460;-69
2022/05/23 11:09:57;;;;;;;15.07;7.87;;;23.70;47.50;;;;;;5005845;28;21029;-70
2022/05/23 11:12:45;;;;;;;17.17;8.33;;;23.70;48.40;;;;;;5008683;28;21058;-73
2022/05/23 11:15:35;;;;;;;47.40;8.50;;;23.30;51.70;;;;;;5012201;28;20950;-75
2022/05/23 11:18:10;;;;;;;49.50;10.27;;;23.20;54.90;;;;;;5013495;28;20459;-79
2022/05/23 11:20:37;;;;;;;48.53;8.87;;;20.60;78.70;;;;;;5013322;28;20467;-76
2022/05/23 11:23:30;;;;;;;31.83;9.93;;;19.70;91.40;;;;;;5009047;28;20580;-76
2022/05/23 11:26:01;;;;;;;31.40;9.57;;;19.10;96.80;;;;;;5013946;28;20442;-77
2022/05/23 11:34:28;;;;;;;22.57;8.33;;;19.70;91.80;;;;;;5007486;28;20429;-72
2022/05/23 11:37:08;;;;;;;17.73;8.10;;;19.80;91.50;;;;;;5006345;28;20437;-75
2022/05/23 11:39:54;;;;;;;23.47;8.10;;;19.80;91.50;;;;;;5005821;28;20786;-74
2022/05/23 11:42:27;;;;;;;21.07;8.90;;;20.50;88.80;;;;;;5008249;28;20433;-74
2022/05/23 11:44:57;;;;;;;22.10;8.27;;;20.80;85.50;;;;;;5008555;28;20418;-73
2022/05/23 11:47:25;;;;;;;21.47;9.47;;;20.40;90.00;;;;;;5011091;28;20448;-73
2022/05/23 11:50:00;;;;;;;22.70;10.50;;;20.70;88.40;;;;;;5009996;28;20435;-74
2022/05/23 11:52:40;;;;;;;29.70;10.77;;;21.30;84.70;;;;;;5008525;28;20427;-75
2022/05/23 11:55:44;;;;;;;30.07;10.43;;;21.50;81.10;;;;;;5007825;28;20434;-73
2022/05/23 11:58:21;;;;;;;18.30;10.67;;;21.30;81.10;;;;;;5006380;28;20976;-75
2022/05/23 12:01:15;;;;;;;26.73;11.10;;;21.50;79.50;;;;;;5008087;28;20425;-75
2022/05/23 12:03:47;;;;;;;30.40;10.47;;;21.40;79.50;;;;;;5003386;28;20421;-75
2022/05/23 12:06:16;;;;;;;20.67;9.80;;;21.50;82.10;;;;;;5013483;28;20416;-76
2022/05/23 12:09:01;;;;;;;20.13;9.60;;;21.50;77.80;;;;;;5006783;28;20994;-75
2022/05/23 12:11:30;;;;;;;23.90;10.63;;;21.80;77.10;;;;;;5011590;28;20425;-74
2022/05/23 12:14:12;;;;;;;22.97;7.90;;;21.80;77.50;;;;;;5010493;28;20829;-75
2022/05/23 12:16:42;;;;;;;17.60;7.73;;;21.80;74.80;;;;;;5002442;28;20973;-75
2022/05/23 12:19:14;;;;;;;15.17;6.90;;;21.90;76.70;;;;;;5011785;28;20455;-76
2022/05/23 12:21:48;;;;;;;21.90;7.40;;;22.00;72.70;;;;;;5012643;28;20425;-76
2022/05/23 12:24:33;;;;;;;17.93;7.17;;;21.80;75.30;;;;;;5004296;28;20426;-75
2022/05/23 12:27:01;;;;;;;13.13;6.30;;;22.00;74.40;;;;;;5004714;28;20431;-73
2022/05/23 12:29:36;;;;;;;29.00;7.20;;;22.10;75.10;;;;;;5013063;28;20462;-75
2022/05/23 12:32:05;;;;;;;18.40;6.63;;;22.30;73.00;;;;;;5003231;28;20418;-75
2022/05/23 12:34:33;;;;;;;18.17;5.47;;;22.50;71.40;;;;;;5011473;28;20833;-74
2022/05/23 12:37:00;;;;;;;17.00;6.70;;;22.60;71.60;;;;;;5012424;28;20941;-76
2022/05/23 12:39:29;;;;;;;13.13;5.57;;;22.80;72.10;;;;;;5000710;28;20427;-76
2022/05/23 12:42:32;;;;;;;14.87;6.17;;;22.90;75.00;;;;;;5003004;28;20446;-75
2022/05/23 12:45:22;;;;;;;13.17;5.80;;;23.20;75.00;;;;;;5008259;28;20427;-75
2022/05/23 12:47:54;;;;;;;30.60;5.83;;;23.60;67.00;;;;;;5005990;28;20468;-75
2022/05/23 12:50:36;;;;;;;14.47;5.03;;;23.80;67.20;;;;;;5008885;28;20426;-75
2022/05/23 12:53:43;;;;;;;17.40;4.67;;;24.20;62.30;;;;;;5002529;28;20795;-75
2022/05/23 12:56:16;;;;;;;21.53;5.40;;;24.60;57.40;;;;;;5001938;28;20448;-74
2022/05/23 12:59:23;;;;;;;14.10;4.43;;;25.50;55.00;;;;;;5007745;28;20456;-74
2022/05/23 13:01:53;;;;;;;22.00;4.90;;;25.20;57.30;;;;;;5001596;28;20439;-75
2022/05/23 13:04:26;;;;;;;14.80;4.60;;;25.40;49.50;;;;;;5009373;28;20754;-74
2022/05/23 13:07:01;;;;;;;8.90;3.83;;;24.50;52.00;;;;;;5004821;28;20433;-74
2022/05/23 13:09:45;;;;;;;11.60;4.40;;;24.80;53.50;;;;;;5005838;28;20570;-74
2022/05/23 13:12:21;;;;;;;16.27;4.60;;;24.70;57.60;;;;;;5003208;28;20471;-74
2022/05/23 13:14:57;;;;;;;15.30;4.00;;;25.40;51.90;;;;;;5000956;28;20443;-75
2022/05/23 13:17:35;;;;;;;12.70;4.13;;;25.10;50.90;;;;;;4999988;28;20477;-74
2022/05/23 13:22:45;;;;;;;17.53;4.20;;;24.70;55.30;;;;;;5007516;28;20427;-74
2022/05/23 13:25:11;;;;;;;15.73;4.27;;;24.60;53.00;;;;;;5009381;28;20431;-73
2022/05/23 13:27:49;;;;;;;18.60;3.93;;;25.10;54.10;;;;;;5009794;28;20209;-74
2022/05/23 13:30:17;;;;;;;9.60;3.90;;;26.20;44.60;;;;;;5008230;28;20324;-74
2022/05/23 13:32:44;;;;;;;14.13;4.30;;;26.80;42.00;;;;;;5013861;28;20446;-74
2022/05/23 13:35:21;;;;;;;11.70;3.60;;;26.80;41.40;;;;;;5005517;28;20917;-71
2022/05/23 13:37:47;;;;;;;16.23;4.33;;;27.50;41.90;;;;;;5011555;28;20493;-74
2022/05/23 13:40:23;;;;;;;17.77;3.80;;;27.60;39.80;;;;;;5004997;28;20436;-74
2022/05/23 13:42:49;;;;;;;21.63;4.00;;;26.80;37.20;;;;;;5010068;28;20840;-74
2022/05/23 13:45:24;;;;;;;10.90;3.70;;;26.40;38.40;;;;;;5009139;28;20450;-72
2022/05/23 13:48:03;;;;;;;10.93;3.17;;;27.00;37.60;;;;;;5006005;28;20208;-72
2022/05/23 13:50:43;;;;;;;15.70;3.73;;;26.90;35.50;;;;;;5004481;28;21123;-75
2022/05/23 13:53:30;;;;;;;14.20;3.90;;;26.00;40.80;;;;;;5004475;28;20433;-75
2022/05/23 13:55:58;;;;;;;13.77;3.70;;;25.70;43.20;;;;;;5008895;28;21172;-74